sensor_id;sensor_type;location;lat;lon;timestamp;pressure;altitude;pressure_sealevel;temperature;humidity
16120;BME280;12670;53.502;10.252;2023-01-30T00:00:48;100629.47;;;3.62;100.00
16120;BME280;12670;53.502;10.252;2023-01-30T00:03:51;100631.13;;;3.68;100.00
16120;BME280;12670;53.502;10.252;2023-01-30T00:06:54;100601.47;;;3.63;100.00
16120;BME280;12670;53.502;10.252;2023-01-30T00:09:58;100590.84;;;3.72;100.00
16120;BME280;12670;53.502;10.252;2023-01-30T00:13:00;100599.50;;;3.77;100.00
16120;BME280;12670;53.502;10.252;2023-01-30T00:16:03;100589.16;;;3.68;100.00
16120;BME280;12670;53.502;10.252;2023-01-30T00:19:06;100589.75;;;3.85;100.00
16120;BME280;12670;53.502;10.252;2023-01-30T00:22:09;100568.06;;;3.74;100.00
16120;BME280;12670;53.502;10.252;2023-01-30T00:25:13;100575.00;;;3.78;100.00
16120;BME280;12670;53.502;10.252;2023-01-30T00:28:16;100557.56;;;3.74;100.00
16120;BME280;12670;53.502;10.252;2023-01-30T00:31:18;100548.69;;;3.83;100.00
16120;BME280;12670;53.502;10.252;2023-01-30T00:34:21;100555.69;;;3.82;100.00
16120;BME280;12670;53.502;10.252;2023-01-30T00:37:24;100548.56;;;3.89;100.00
16120;BME280;12670;53.502;10.252;2023-01-30T00:40:28;100528.38;;;3.94;100.00
16120;BME280;12670;53.502;10.252;2023-01-30T00:43:31;100509.97;;;3.95;100.00
16120;BME280;12670;53.502;10.252;2023-01-30T00:46:51;100515.34;;;3.86;100.00
16120;BME280;12670;53.502;10.252;2023-01-30T00:50:10;100515.31;;;3.89;100.00
16120;BME280;12670;53.502;10.252;2023-01-30T00:53:14;100493.31;;;3.96;100.00
16120;BME280;12670;53.502;10.252;2023-01-30T00:56:18;100491.28;;;4.12;100.00
16120;BME280;12670;53.502;10.252;2023-01-30T00:59:21;100476.63;;;4.00;100.00
16120;BME280;12670;53.502;10.252;2023-01-30T01:02:23;100465.22;;;4.01;100.00
16120;BME280;12670;53.502;10.252;2023-01-30T01:05:27;100455.53;;;4.05;100.00
16120;BME280;12670;53.502;10.252;2023-01-30T01:08:30;100448.13;;;4.25;100.00
16120;BME280;12670;53.502;10.252;2023-01-30T01:11:34;100455.41;;;4.10;100.00
16120;BME280;12670;53.502;10.252;2023-01-30T01:14:37;100443.94;;;4.17;100.00
16120;BME280;12670;53.502;10.252;2023-01-30T01:17:40;100442.94;;;4.21;100.00
16120;BME280;12670;53.502;10.252;2023-01-30T01:20:43;100444.72;;;4.20;100.00
16120;BME280;12670;53.502;10.252;2023-01-30T01:23:48;100449.91;;;4.22;100.00
16120;BME280;12670;53.502;10.252;2023-01-30T01:26:52;100449.69;;;4.34;100.00
16120;BME280;12670;53.502;10.252;2023-01-30T01:29:55;100426.81;;;4.39;100.00
16120;BME280;12670;53.502;10.252;2023-01-30T01:32:58;100419.63;;;4.47;100.00
16120;BME280;12670;53.502;10.252;2023-01-30T01:36:00;100418.72;;;4.48;100.00
16120;BME280;12670;53.502;10.252;2023-01-30T01:39:05;100415.31;;;4.45;100.00
16120;BME280;12670;53.502;10.252;2023-01-30T01:42:09;100400.06;;;4.61;100.00
16120;BME280;12670;53.502;10.252;2023-01-30T01:45:17;100394.97;;;4.54;100.00
16120;BME280;12670;53.502;10.252;2023-01-30T01:48:24;100380.63;;;4.68;100.00
16120;BME280;12670;53.502;10.252;2023-01-30T01:51:32;100375.53;;;4.62;100.00
16120;BME280;12670;53.502;10.252;2023-01-30T01:54:38;100362.28;;;4.66;100.00
16120;BME280;12670;53.502;10.252;2023-01-30T01:57:47;100367.34;;;4.74;100.00
16120;BME280;12670;53.502;10.252;2023-01-30T02:00:53;100361.34;;;4.69;100.00
16120;BME280;12670;53.502;10.252;2023-01-30T02:04:01;100352.44;;;4.76;100.00
16120;BME280;12670;53.502;10.252;2023-01-30T02:07:06;100362.63;;;4.88;100.00
16120;BME280;12670;53.502;10.252;2023-01-30T02:10:14;100348.81;;;4.80;100.00
16120;BME280;12670;53.502;10.252;2023-01-30T02:13:20;100342.22;;;4.64;100.00
16120;BME280;12670;53.502;10.252;2023-01-30T02:16:23;100349.03;;;4.71;100.00
16120;BME280;12670;53.502;10.252;2023-01-30T02:19:33;100343.44;;;4.85;100.00
16120;BME280;12670;53.502;10.252;2023-01-30T02:30:37;100307.72;;;4.77;100.00
16120;BME280;12670;53.502;10.252;2023-01-30T02:33:49;100313.75;;;4.81;100.00
16120;BME280;12670;53.502;10.252;2023-01-30T02:36:58;100308.41;;;4.84;100.00
16120;BME280;12670;53.502;10.252;2023-01-30T02:40:13;100293.50;;;4.85;100.00
16120;BME280;12670;53.502;10.252;2023-01-30T02:43:25;100298.84;;;4.81;100.00
16120;BME280;12670;53.502;10.252;2023-01-30T02:46:38;100292.44;;;4.92;100.00
16120;BME280;12670;53.502;10.252;2023-01-30T02:49:46;100289.78;;;4.93;100.00
16120;BME280;12670;53.502;10.252;2023-01-30T02:52:51;100287.38;;;4.84;100.00
16120;BME280;12670;53.502;10.252;2023-01-30T02:55:55;100278.56;;;4.87;100.00
16120;BME280;12670;53.502;10.252;2023-01-30T02:59:01;100271.47;;;4.90;100.00
16120;BME280;12670;53.502;10.252;2023-01-30T03:02:40;100273.97;;;4.95;100.00
16120;BME280;12670;53.502;10.252;2023-01-30T03:05:56;100260.63;;;5.02;100.00
16120;BME280;12670;53.502;10.252;2023-01-30T03:09:11;100259.84;;;4.99;100.00
16120;BME280;12670;53.502;10.252;2023-01-30T03:12:22;100261.53;;;5.01;100.00
16120;BME280;12670;53.502;10.252;2023-01-30T03:15:33;100250.94;;;5.04;100.00
16120;BME280;12670;53.502;10.252;2023-01-30T03:18:40;100245.53;;;5.09;100.00
16120;BME280;12670;53.502;10.252;2023-01-30T03:21:44;100237.69;;;5.07;100.00
16120;BME280;12670;53.502;10.252;2023-01-30T03:24:48;100239.25;;;5.15;100.00
16120;BME280;12670;53.502;10.252;2023-01-30T03:27:53;100234.66;;;5.23;100.00
16120;BME280;12670;53.502;10.252;2023-01-30T03:30:56;100224.13;;;5.23;100.00
16120;BME280;12670;53.502;10.252;2023-01-30T03:34:00;100231.00;;;5.28;100.00
16120;BME280;12670;53.502;10.252;2023-01-30T03:37:03;100211.72;;;5.28;100.00
16120;BME280;12670;53.502;10.252;2023-01-30T03:40:07;100205.31;;;5.37;100.00
16120;BME280;12670;53.502;10.252;2023-01-30T03:43:10;100195.88;;;5.29;100.00
16120;BME280;12670;53.502;10.252;2023-01-30T03:46:12;100200.97;;;5.35;100.00
16120;BME280;12670;53.502;10.252;2023-01-30T03:49:16;100196.44;;;5.41;100.00
16120;BME280;12670;53.502;10.252;2023-01-30T03:52:19;100184.81;;;5.48;100.00
16120;BME280;12670;53.502;10.252;2023-01-30T03:55:22;100177.97;;;5.42;100.00
16120;BME280;12670;53.502;10.252;2023-01-30T03:58:24;100173.34;;;5.50;100.00
16120;BME280;12670;53.502;10.252;2023-01-30T04:01:27;100162.63;;;5.56;100.00
16120;BME280;12670;53.502;10.252;2023-01-30T04:04:31;100164.56;;;5.51;100.00
16120;BME280;12670;53.502;10.252;2023-01-30T04:07:33;100161.81;;;5.54;100.00
16120;BME280;12670;53.502;10.252;2023-01-30T04:10:36;100162.72;;;5.53;100.00
16120;BME280;12670;53.502;10.252;2023-01-30T04:13:39;100170.13;;;5.69;100.00
16120;BME280;12670;53.502;10.252;2023-01-30T04:16:41;100160.63;;;5.65;100.00
16120;BME280;12670;53.502;10.252;2023-01-30T04:19:45;100158.72;;;5.70;100.00
16120;BME280;12670;53.502;10.252;2023-01-30T04:22:48;100144.47;;;5.77;100.00
16120;BME280;12670;53.502;10.252;2023-01-30T04:25:51;100137.94;;;5.60;100.00
16120;BME280;12670;53.502;10.252;2023-01-30T04:28:53;100145.75;;;5.64;100.00
16120;BME280;12670;53.502;10.252;2023-01-30T04:31:56;100150.13;;;5.65;100.00
16120;BME280;12670;53.502;10.252;2023-01-30T04:35:00;100153.47;;;5.70;100.00
16120;BME280;12670;53.502;10.252;2023-01-30T04:38:03;100165.72;;;5.71;100.00
16120;BME280;12670;53.502;10.252;2023-01-30T04:41:05;100168.16;;;5.77;100.00
16120;BME280;12670;53.502;10.252;2023-01-30T04:44:08;100175.25;;;5.75;100.00
16120;BME280;12670;53.502;10.252;2023-01-30T04:47:10;100183.84;;;5.80;100.00
16120;BME280;12670;53.502;10.252;2023-01-30T04:50:15;100182.16;;;5.77;100.00
16120;BME280;12670;53.502;10.252;2023-01-30T04:53:18;100182.03;;;5.82;100.00
16120;BME280;12670;53.502;10.252;2023-01-30T04:56:21;100177.38;;;5.90;100.00
16120;BME280;12670;53.502;10.252;2023-01-30T04:59:24;100175.56;;;5.94;100.00
16120;BME280;12670;53.502;10.252;2023-01-30T05:02:26;100166.84;;;5.90;100.00
16120;BME280;12670;53.502;10.252;2023-01-30T05:05:31;100181.56;;;5.97;100.00
16120;BME280;12670;53.502;10.252;2023-01-30T05:08:34;100160.47;;;5.99;100.00
16120;BME280;12670;53.502;10.252;2023-01-30T05:11:37;100159.69;;;5.95;100.00
16120;BME280;12670;53.502;10.252;2023-01-30T05:14:39;100159.81;;;5.91;100.00
16120;BME280;12670;53.502;10.252;2023-01-30T05:17:42;100172.81;;;5.97;100.00
16120;BME280;12670;53.502;10.252;2023-01-30T05:20:46;100168.59;;;5.91;100.00
16120;BME280;12670;53.502;10.252;2023-01-30T05:23:50;100153.81;;;5.87;100.00
16120;BME280;12670;53.502;10.252;2023-01-30T05:26:52;100153.81;;;5.85;100.00
16120;BME280;12670;53.502;10.252;2023-01-30T05:29:55;100161.53;;;5.93;100.00
16120;BME280;12670;53.502;10.252;2023-01-30T05:32:57;100170.16;;;5.98;100.00
16120;BME280;12670;53.502;10.252;2023-01-30T05:36:02;100161.06;;;5.79;100.00
16120;BME280;12670;53.502;10.252;2023-01-30T05:39:04;100169.59;;;5.87;100.00
16120;BME280;12670;53.502;10.252;2023-01-30T05:42:07;100165.31;;;5.83;100.00
16120;BME280;12670;53.502;10.252;2023-01-30T05:45:10;100156.81;;;5.75;100.00
16120;BME280;12670;53.502;10.252;2023-01-30T05:48:13;100152.63;;;5.68;100.00
16120;BME280;12670;53.502;10.252;2023-01-30T05:51:18;100158.22;;;5.85;100.00
16120;BME280;12670;53.502;10.252;2023-01-30T05:54:21;100162.09;;;5.75;100.00
16120;BME280;12670;53.502;10.252;2023-01-30T05:57:24;100168.41;;;5.69;100.00
16120;BME280;12670;53.502;10.252;2023-01-30T06:00:27;100167.63;;;5.66;100.00
16120;BME280;12670;53.502;10.252;2023-01-30T06:03:30;100159.91;;;5.59;100.00
16120;BME280;12670;53.502;10.252;2023-01-30T06:06:34;100151.34;;;5.53;100.00
16120;BME280;12670;53.502;10.252;2023-01-30T06:09:37;100157.72;;;5.44;100.00
16120;BME280;12670;53.502;10.252;2023-01-30T06:12:39;100147.88;;;5.52;100.00
16120;BME280;12670;53.502;10.252;2023-01-30T06:15:42;100154.47;;;5.36;100.00
16120;BME280;12670;53.502;10.252;2023-01-30T06:18:45;100151.66;;;5.42;100.00
16120;BME280;12670;53.502;10.252;2023-01-30T06:21:49;100155.28;;;5.40;100.00
16120;BME280;12670;53.502;10.252;2023-01-30T06:24:52;100155.28;;;5.40;100.00
16120;BME280;12670;53.502;10.252;2023-01-30T06:27:54;100162.50;;;5.31;100.00
16120;BME280;12670;53.502;10.252;2023-01-30T06:30:57;100166.13;;;5.27;100.00
16120;BME280;12670;53.502;10.252;2023-01-30T06:34:00;100168.50;;;5.37;100.00
16120;BME280;12670;53.502;10.252;2023-01-30T06:37:04;100173.69;;;5.38;100.00
16120;BME280;12670;53.502;10.252;2023-01-30T06:40:08;100177.06;;;5.43;100.00
16120;BME280;12670;53.502;10.252;2023-01-30T06:43:11;100165.00;;;5.36;100.00
16120;BME280;12670;53.502;10.252;2023-01-30T06:46:13;100168.81;;;5.26;100.00
16120;BME280;12670;53.502;10.252;2023-01-30T06:49:16;100183.91;;;5.19;100.00
16120;BME280;12670;53.502;10.252;2023-01-30T06:52:20;100189.84;;;5.26;100.00
16120;BME280;12670;53.502;10.252;2023-01-30T06:55:25;100186.75;;;5.12;100.00
16120;BME280;12670;53.502;10.252;2023-01-30T06:58:28;100185.09;;;5.07;100.00
16120;BME280;12670;53.502;10.252;2023-01-30T07:01:31;100188.47;;;5.13;100.00
16120;BME280;12670;53.502;10.252;2023-01-30T07:04:34;100191.22;;;5.08;100.00
16120;BME280;12670;53.502;10.252;2023-01-30T07:07:38;100206.78;;;5.16;100.00
16120;BME280;12670;53.502;10.252;2023-01-30T07:10:41;100200.72;;;5.14;100.00
16120;BME280;12670;53.502;10.252;2023-01-30T07:13:44;100198.09;;;5.14;100.00
16120;BME280;12670;53.502;10.252;2023-01-30T07:16:46;100198.66;;;5.25;100.00
16120;BME280;12670;53.502;10.252;2023-01-30T07:19:49;100196.53;;;5.06;100.00
16120;BME280;12670;53.502;10.252;2023-01-30T07:22:54;100201.50;;;5.17;100.00
16120;BME280;12670;53.502;10.252;2023-01-30T07:25:57;100203.44;;;5.11;100.00
16120;BME280;12670;53.502;10.252;2023-01-30T07:29:00;100182.66;;;5.01;100.00
16120;BME280;12670;53.502;10.252;2023-01-30T07:32:03;100193.91;;;5.06;100.00
16120;BME280;12670;53.502;10.252;2023-01-30T07:35:07;100192.09;;;5.08;100.00
16120;BME280;12670;53.502;10.252;2023-01-30T07:38:11;100184.00;;;5.16;100.00
16120;BME280;12670;53.502;10.252;2023-01-30T07:41:13;100183.38;;;5.06;100.00
16120;BME280;12670;53.502;10.252;2023-01-30T07:44:16;100178.94;;;5.08;100.00
16120;BME280;12670;53.502;10.252;2023-01-30T07:47:18;100182.47;;;5.07;100.00
16120;BME280;12670;53.502;10.252;2023-01-30T07:50:21;100191.72;;;5.22;100.00
16120;BME280;12670;53.502;10.252;2023-01-30T07:53:25;100191.19;;;5.09;100.00
16120;BME280;12670;53.502;10.252;2023-01-30T07:56:28;100204.53;;;5.33;100.00
16120;BME280;12670;53.502;10.252;2023-01-30T07:59:31;100198.47;;;5.31;100.00
16120;BME280;12670;53.502;10.252;2023-01-30T08:02:34;100195.88;;;5.29;100.00
16120;BME280;12670;53.502;10.252;2023-01-30T08:05:36;100189.66;;;5.32;100.00
16120;BME280;12670;53.502;10.252;2023-01-30T08:08:41;100198.91;;;5.45;100.00
16120;BME280;12670;53.502;10.252;2023-01-30T08:11:44;100192.91;;;5.42;100.00
16120;BME280;12670;53.502;10.252;2023-01-30T08:14:46;100187.72;;;5.39;100.00
16120;BME280;12670;53.502;10.252;2023-01-30T08:17:53;100201.53;;;5.45;100.00
16120;BME280;12670;53.502;10.252;2023-01-30T08:20:56;100197.75;;;5.55;100.00
16120;BME280;12670;53.502;10.252;2023-01-30T08:24:00;100213.34;;;5.61;100.00
16120;BME280;12670;53.502;10.252;2023-01-30T08:27:03;100213.44;;;5.58;100.00
16120;BME280;12670;53.502;10.252;2023-01-30T08:30:07;100188.84;;;5.59;100.00
16120;BME280;12670;53.502;10.252;2023-01-30T08:33:10;100195.22;;;5.52;100.00
16120;BME280;12670;53.502;10.252;2023-01-30T08:36:12;100189.97;;;5.51;100.00
16120;BME280;12670;53.502;10.252;2023-01-30T08:39:16;100208.41;;;5.51;100.00
16120;BME280;12670;53.502;10.252;2023-01-30T08:42:19;100208.56;;;5.46;100.00
16120;BME280;12670;53.502;10.252;2023-01-30T08:45:22;100208.44;;;5.49;100.00
16120;BME280;12670;53.502;10.252;2023-01-30T08:48:25;100206.38;;;5.60;100.00
16120;BME280;12670;53.502;10.252;2023-01-30T08:51:32;100201.69;;;5.70;100.00
16120;BME280;12670;53.502;10.252;2023-01-30T08:54:36;100190.00;;;5.79;100.00
16120;BME280;12670;53.502;10.252;2023-01-30T08:57:39;100209.47;;;5.75;100.00
16120;BME280;12670;53.502;10.252;2023-01-30T09:00:41;100185.97;;;5.67;100.00
16120;BME280;12670;53.502;10.252;2023-01-30T09:03:46;100194.59;;;5.72;100.00
16120;BME280;12670;53.502;10.252;2023-01-30T09:06:49;100205.19;;;5.71;100.00
16120;BME280;12670;53.502;10.252;2023-01-30T09:09:53;100192.22;;;5.65;100.00
16120;BME280;12670;53.502;10.252;2023-01-30T09:12:56;100186.56;;;5.77;100.00
16120;BME280;12670;53.502;10.252;2023-01-30T09:15:58;100186.66;;;5.74;100.00
16120;BME280;12670;53.502;10.252;2023-01-30T09:19:01;100196.72;;;5.89;100.00
16120;BME280;12670;53.502;10.252;2023-01-30T09:22:04;100182.41;;;5.99;100.00
16120;BME280;12670;53.502;10.252;2023-01-30T09:25:09;100191.38;;;5.92;100.00
16120;BME280;12670;53.502;10.252;2023-01-30T09:28:12;100189.59;;;5.94;100.00
16120;BME280;12670;53.502;10.252;2023-01-30T09:31:15;100179.03;;;5.94;100.00
16120;BME280;12670;53.502;10.252;2023-01-30T09:34:17;100190.44;;;5.95;100.00
16120;BME280;12670;53.502;10.252;2023-01-30T09:37:20;100194.53;;;5.75;100.00
16120;BME280;12670;53.502;10.252;2023-01-30T09:40:27;100190.16;;;5.74;100.00
16120;BME280;12670;53.502;10.252;2023-01-30T09:43:40;100182.50;;;5.67;100.00
16120;BME280;12670;53.502;10.252;2023-01-30T09:46:53;100181.88;;;5.58;100.00
16120;BME280;12670;53.502;10.252;2023-01-30T09:50:20;100170.13;;;5.70;100.00
16120;BME280;12670;53.502;10.252;2023-01-30T09:53:30;100169.63;;;5.57;100.00
16120;BME280;12670;53.502;10.252;2023-01-30T09:56:37;100170.59;;;5.83;100.00
16120;BME280;12670;53.502;10.252;2023-01-30T09:59:49;100167.91;;;5.84;100.00
16120;BME280;12670;53.502;10.252;2023-01-30T10:02:59;100175.41;;;5.98;100.00
16120;BME280;12670;53.502;10.252;2023-01-30T10:06:08;100172.84;;;6.23;100.00
16120;BME280;12670;53.502;10.252;2023-01-30T10:09:17;100163.88;;;6.29;100.00
16120;BME280;12670;53.502;10.252;2023-01-30T10:12:37;100170.25;;;6.22;100.00
16120;BME280;12670;53.502;10.252;2023-01-30T10:15:51;100167.06;;;6.12;100.00
16120;BME280;12670;53.502;10.252;2023-01-30T10:19:10;100175.03;;;6.09;100.00
16120;BME280;12670;53.502;10.252;2023-01-30T10:22:42;100149.53;;;5.83;100.00
16120;BME280;12670;53.502;10.252;2023-01-30T10:25:48;100150.31;;;5.58;100.00
16120;BME280;12670;53.502;10.252;2023-01-30T10:28:58;100143.03;;;5.67;100.00
16120;BME280;12670;53.502;10.252;2023-01-30T10:32:12;100143.84;;;5.41;100.00
16120;BME280;12670;53.502;10.252;2023-01-30T10:35:19;100148.19;;;5.42;100.00
16120;BME280;12670;53.502;10.252;2023-01-30T10:38:28;100137.06;;;5.32;100.00
16120;BME280;12670;53.502;10.252;2023-01-30T10:41:35;100150.88;;;5.40;100.00
16120;BME280;12670;53.502;10.252;2023-01-30T10:44:41;100151.22;;;5.28;100.00
16120;BME280;12670;53.502;10.252;2023-01-30T10:47:49;100131.41;;;4.85;100.00
16120;BME280;12670;53.502;10.252;2023-01-30T10:50:58;100120.53;;;4.97;100.00
16120;BME280;12670;53.502;10.252;2023-01-30T10:54:04;100119.19;;;5.14;100.00
16120;BME280;12670;53.502;10.252;2023-01-30T10:57:17;100121.84;;;5.14;100.00
16120;BME280;12670;53.502;10.252;2023-01-30T11:00:29;100103.38;;;5.15;100.00
16120;BME280;12670;53.502;10.252;2023-01-30T11:03:37;100111.81;;;5.26;100.00
16120;BME280;12670;53.502;10.252;2023-01-30T11:06:42;100101.81;;;5.38;100.00
16120;BME280;12670;53.502;10.252;2023-01-30T11:09:47;100105.78;;;5.23;100.00
16120;BME280;12670;53.502;10.252;2023-01-30T11:12:52;100134.53;;;5.29;100.00
16120;BME280;12670;53.502;10.252;2023-01-30T11:16:05;100137.91;;;5.04;100.00
16120;BME280;12670;53.502;10.252;2023-01-30T11:19:08;100155.81;;;4.90;100.00
16120;BME280;12670;53.502;10.252;2023-01-30T11:22:23;100180.28;;;4.92;100.00
16120;BME280;12670;53.502;10.252;2023-01-30T11:25:27;100174.16;;;4.92;100.00
16120;BME280;12670;53.502;10.252;2023-01-30T11:28:35;100177.00;;;4.84;100.00
16120;BME280;12670;53.502;10.252;2023-01-30T11:31:48;100171.56;;;4.90;100.00
16120;BME280;12670;53.502;10.252;2023-01-30T11:35:02;100177.81;;;4.86;100.00
16120;BME280;12670;53.502;10.252;2023-01-30T11:38:20;100183.47;;;5.03;100.00
16120;BME280;12670;53.502;10.252;2023-01-30T11:41:23;100157.34;;;4.97;100.00
16120;BME280;12670;53.502;10.252;2023-01-30T11:44:27;100158.13;;;4.70;100.00
16120;BME280;12670;53.502;10.252;2023-01-30T11:47:31;100145.81;;;4.72;100.00
16120;BME280;12670;53.502;10.252;2023-01-30T11:50:39;100172.81;;;4.77;100.00
16120;BME280;12670;53.502;10.252;2023-01-30T11:53:54;100171.00;;;4.79;100.00
16120;BME280;12670;53.502;10.252;2023-01-30T12:08:22;100155.44;;;5.61;100.00
16120;BME280;12670;53.502;10.252;2023-01-30T12:26:32;100126.28;;;5.97;100.00
16120;BME280;12670;53.502;10.252;2023-01-30T12:29:42;100112.75;;;5.80;100.00
16120;BME280;12670;53.502;10.252;2023-01-30T12:32:51;100116.13;;;5.57;100.00
16120;BME280;12670;53.502;10.252;2023-01-30T12:36:06;100124.19;;;5.52;100.00
16120;BME280;12670;53.502;10.252;2023-01-30T12:39:13;100128.19;;;5.36;100.00
16120;BME280;12670;53.502;10.252;2023-01-30T12:42:53;100104.22;;;5.16;100.00
16120;BME280;12670;53.502;10.252;2023-01-30T12:46:08;100138.22;;;5.23;100.00
16120;BME280;12670;53.502;10.252;2023-01-30T12:49:24;100152.44;;;5.16;100.00
16120;BME280;12670;53.502;10.252;2023-01-30T12:52:50;100170.16;;;5.39;100.00
16120;BME280;12670;53.502;10.252;2023-01-30T12:56:16;100165.56;;;5.18;100.00
16120;BME280;12670;53.502;10.252;2023-01-30T12:59:29;100146.53;;;5.08;100.00
16120;BME280;12670;53.502;10.252;2023-01-30T13:02:44;100153.38;;;5.14;100.00
16120;BME280;12670;53.502;10.252;2023-01-30T13:05:53;100157.28;;;5.30;100.00
16120;BME280;12670;53.502;10.252;2023-01-30T13:09:08;100156.31;;;5.34;100.00
16120;BME280;12670;53.502;10.252;2023-01-30T13:12:20;100149.72;;;5.77;100.00
16120;BME280;12670;53.502;10.252;2023-01-30T13:15:32;100165.13;;;6.17;100.00
16120;BME280;12670;53.502;10.252;2023-01-30T13:18:40;100159.06;;;5.87;100.00
16120;BME280;12670;53.502;10.252;2023-01-30T13:21:48;100177.34;;;6.46;100.00
16120;BME280;12670;53.502;10.252;2023-01-30T13:25:03;100166.69;;;6.49;100.00
16120;BME280;12670;53.502;10.252;2023-01-30T13:28:11;100179.97;;;6.20;100.00
16120;BME280;12670;53.502;10.252;2023-01-30T13:31:18;100178.41;;;6.14;100.00
16120;BME280;12670;53.502;10.252;2023-01-30T13:34:25;100169.25;;;5.98;100.00
16120;BME280;12670;53.502;10.252;2023-01-30T13:37:29;100182.59;;;5.93;100.00
16120;BME280;12670;53.502;10.252;2023-01-30T13:40:37;100169.63;;;6.13;100.00
16120;BME280;12670;53.502;10.252;2023-01-30T13:43:44;100182.94;;;6.09;100.00
16120;BME280;12670;53.502;10.252;2023-01-30T13:46:51;100192.63;;;6.08;100.00
16120;BME280;12670;53.502;10.252;2023-01-30T13:50:02;100194.44;;;6.06;100.00
16120;BME280;12670;53.502;10.252;2023-01-30T13:53:17;100196.38;;;6.01;100.00
16120;BME280;12670;53.502;10.252;2023-01-30T13:56:28;100192.31;;;5.89;100.00
16120;BME280;12670;53.502;10.252;2023-01-30T13:59:59;100204.88;;;5.81;100.00
16120;BME280;12670;53.502;10.252;2023-01-30T14:03:28;100245.28;;;5.49;100.00
16120;BME280;12670;53.502;10.252;2023-01-30T14:06:34;100246.44;;;5.41;100.00
16120;BME280;12670;53.502;10.252;2023-01-30T14:09:40;100232.78;;;5.26;100.00
16120;BME280;12670;53.502;10.252;2023-01-30T14:12:45;100244.59;;;5.43;100.00
16120;BME280;12670;53.502;10.252;2023-01-30T14:15:53;100243.63;;;5.45;100.00
16120;BME280;12670;53.502;10.252;2023-01-30T14:18:58;100255.38;;;5.33;100.00
16120;BME280;12670;53.502;10.252;2023-01-30T14:22:03;100270.59;;;5.53;100.00
16120;BME280;12670;53.502;10.252;2023-01-30T14:25:45;100269.34;;;5.67;100.00
16120;BME280;12670;53.502;10.252;2023-01-30T14:28:49;100264.81;;;5.72;100.00
16120;BME280;12670;53.502;10.252;2023-01-30T14:31:55;100274.34;;;5.76;100.00
16120;BME280;12670;53.502;10.252;2023-01-30T14:35:18;100281.88;;;5.88;100.00
16120;BME280;12670;53.502;10.252;2023-01-30T14:38:21;100282.34;;;6.02;100.00
16120;BME280;12670;53.502;10.252;2023-01-30T14:41:26;100282.53;;;5.96;100.00
16120;BME280;12670;53.502;10.252;2023-01-30T14:44:57;100306.91;;;6.03;100.00
16120;BME280;12670;53.502;10.252;2023-01-30T14:48:25;100320.06;;;6.04;100.00
16120;BME280;12670;53.502;10.252;2023-01-30T14:51:33;100340.03;;;6.11;100.00
16120;BME280;12670;53.502;10.252;2023-01-30T14:54:42;100351.59;;;6.06;100.00
16120;BME280;12670;53.502;10.252;2023-01-30T14:57:53;100357.72;;;6.06;100.00
16120;BME280;12670;53.502;10.252;2023-01-30T15:00:57;100375.94;;;6.14;100.00
16120;BME280;12670;53.502;10.252;2023-01-30T15:04:02;100382.66;;;6.24;100.00
16120;BME280;12670;53.502;10.252;2023-01-30T15:07:10;100393.19;;;6.24;100.00
16120;BME280;12670;53.502;10.252;2023-01-30T15:10:26;100404.34;;;6.34;100.00
16120;BME280;12670;53.502;10.252;2023-01-30T15:13:41;100404.50;;;6.28;100.00
16120;BME280;12670;53.502;10.252;2023-01-30T15:16:56;100402.59;;;6.33;100.00
16120;BME280;12670;53.502;10.252;2023-01-30T15:20:17;100422.59;;;6.40;100.00
16120;BME280;12670;53.502;10.252;2023-01-30T15:23:47;100413.22;;;6.30;100.00
16120;BME280;12670;53.502;10.252;2023-01-30T15:27:02;100449.38;;;6.25;100.00
16120;BME280;12670;53.502;10.252;2023-01-30T15:30:15;100443.31;;;6.23;100.00
16120;BME280;12670;53.502;10.252;2023-01-30T15:33:21;100460.72;;;6.27;100.00
16120;BME280;12670;53.502;10.252;2023-01-30T15:36:34;100468.59;;;6.28;100.00
16120;BME280;12670;53.502;10.252;2023-01-30T15:39:40;100490.50;;;6.30;100.00
16120;BME280;12670;53.502;10.252;2023-01-30T15:42:43;100492.25;;;6.30;100.00
16120;BME280;12670;53.502;10.252;2023-01-30T15:45:58;100506.53;;;6.23;100.00
16120;BME280;12670;53.502;10.252;2023-01-30T15:49:21;100511.13;;;6.14;100.00
16120;BME280;12670;53.502;10.252;2023-01-30T15:52:36;100519.75;;;6.20;100.00
16120;BME280;12670;53.502;10.252;2023-01-30T15:55:42;100524.97;;;6.21;100.00
16120;BME280;12670;53.502;10.252;2023-01-30T15:58:45;100537.28;;;6.22;100.00
16120;BME280;12670;53.502;10.252;2023-01-30T16:01:57;100552.28;;;6.19;100.00
16120;BME280;12670;53.502;10.252;2023-01-30T16:05:06;100553.31;;;6.13;100.00
16120;BME280;12670;53.502;10.252;2023-01-30T16:08:19;100570.13;;;6.07;100.00
16120;BME280;12670;53.502;10.252;2023-01-30T16:11:38;100576.25;;;6.08;100.00
16120;BME280;12670;53.502;10.252;2023-01-30T16:14:40;100608.56;;;6.14;100.00
16120;BME280;12670;53.502;10.252;2023-01-30T16:17:49;100591.84;;;6.15;100.00
16120;BME280;12670;53.502;10.252;2023-01-30T16:20:56;100603.56;;;6.05;100.00
16120;BME280;12670;53.502;10.252;2023-01-30T16:24:04;100619.97;;;6.15;100.00
16120;BME280;12670;53.502;10.252;2023-01-30T16:27:17;100625.25;;;6.15;100.00
16120;BME280;12670;53.502;10.252;2023-01-30T16:30:23;100629.66;;;6.14;100.00
16120;BME280;12670;53.502;10.252;2023-01-30T16:33:28;100634.34;;;6.02;100.00
16120;BME280;12670;53.502;10.252;2023-01-30T16:36:40;100626.25;;;6.11;100.00
16120;BME280;12670;53.502;10.252;2023-01-30T16:39:44;100629.78;;;6.08;100.00